Flagstaff Pulliam Airport
KFLG : rendu visible

Aérodrome :











RETROUVEZ-NOUS SUR...

 
LOGIN :

S'inscrire | Disclaimer

   EN    FR    IT 

 









Légende :    VFR   VFR Marginal   IFR   IFR Intensif   IFR Très Intensif
Visi : 
Plafond : 
>= 8 km
>= 3000ft
5 à 8 km
1000 à 3000 ft
1500m à 5 km
500 à 1000 ft
800 à 1500m
200 à 500 ft
< 800m
< 200 ft
Symboles :   Orages  Brouillard  Fortes neiges  Fortes précipitations  Vent > 20 kt






- Altitude de l'aérodrome : 7014 ft
- Code IATA : FLG


KFLG - Flagstaff Pulliam

DERNIER METAR :
  • 150433Z AUTO 25008G20KT 10SM BKN016 BKN034 03/M01 A2985 RMK AO2 T00281006

METARs EXPIRÉS :
  • 150357Z AUTO 24010KT 10SM FEW018 SCT036 03/00 A2985 RMK AO2 SLP074 T00280000
  • 150257Z AUTO 24009G19KT 10SM FEW013 SCT023 BKN028 03/01 A2985 RMK AO2 SLP076 T00330011 53001
  • 150253Z AUTO 24010G19KT 10SM FEW013 SCT020 BKN026 03/01 A2985 RMK AO2
  • 150215Z AUTO 23014G19KT 10SM FEW016 SCT025 03/01 A2984 RMK AO2 T00330011
  • 150157Z 24015G24KT 10SM FEW015 SCT027 SCT032 04/01 A2984 RMK AO2 SLP076 T00390011

TAF KFLG
Valide du 15 à 00h jusqu'au 16 à 00h UTC


142334Z 1500/1524 23018G26KT P6SM BKN030 BKN150
FM150200 23015G25KT P6SM VCSH BKN025 OVC035
FM150600 23015G25KT 4SM -SHSNRA SCT005 OVC015
FM151600 24012G20KT P6SM BKN015 OVC025



MET'MAP, la Météo Aéronautique d'un coup d'oeil ! - Copyright ORBIFLY Décembre 2007 - Disclaimer

ORBIFLY MET'MAP TEAM :

Programmation & Développement : Alexandra Zaïnal
Sur une idée originale de : Baudouin d'Aumeries
Assistance à la programmation : Marc-Olivier Méhu
Soutien technique & logistique : Manuel Goepfert

Contact : metmap@orbifly.com




SOURCES & CREDITS :

   NOAA       Earth
Advisory